Time;durP1;ratioP1;P1;durP2;ratioP2;P2;SDS_P1;SDS_P2;PMS_P1;PMS_P2;Temp;Humidity;BMP_temperature;BMP_pressure;BME280_temperature;BME280_humidity;BME280_pressure;Samples;Min_cycle;Max_cycle;Signal;HPM_P1;HPM_P2
2022/10/18 00:01:06;;;;;;;145.95;53.67;;;12.60;98.00;;;;;;5056804;28;20477;-77
2022/10/18 00:03:33;;;;;;;196.52;32.25;;;12.50;98.00;;;;;;5058405;28;20556;-76
2022/10/18 00:05:59;;;;;;;173.73;33.00;;;12.50;98.10;;;;;;5058461;28;20036;-77
2022/10/18 00:08:25;;;;;;;139.70;32.00;;;12.50;98.00;;;;;;5075355;28;20047;-78
2022/10/18 00:10:51;;;;;;;245.90;36.67;;;12.50;98.00;;;;;;5075169;28;20044;-78
2022/10/18 00:13:17;;;;;;;278.67;42.30;;;12.50;98.00;;;;;;5074900;28;20402;-78
2022/10/18 00:15:57;;;;;;;342.52;45.72;;;12.50;98.00;;;;;;5074887;28;20076;-77
2022/10/18 00:18:23;;;;;;;177.77;34.92;;;12.50;97.90;;;;;;5075186;28;20036;-76
2022/10/18 00:21:00;;;;;;;332.88;41.28;;;12.50;98.10;;;;;;5058267;28;20067;-78
2022/10/18 00:23:27;;;;;;;109.22;24.27;;;12.50;98.10;;;;;;5075076;28;20392;-77
2022/10/18 00:26:11;;;;;;;151.00;30.35;;;12.50;98.10;;;;;;5074680;28;20041;-80
2022/10/18 00:28:38;;;;;;;96.07;25.88;;;12.50;98.00;;;;;;5058055;28;20040;-78
2022/10/18 00:31:19;;;;;;;260.42;34.45;;;12.50;98.10;;;;;;5074514;28;20044;-77
2022/10/18 00:33:49;;;;;;;141.35;27.08;;;12.40;98.10;;;;;;5057912;28;20049;-79
2022/10/18 00:36:15;;;;;;;247.40;33.42;;;12.40;98.00;;;;;;5058094;28;20207;-78
2022/10/18 00:38:41;;;;;;;121.05;24.23;;;12.40;98.00;;;;;;5074455;28;20489;-77
2022/10/18 00:41:08;;;;;;;251.57;35.17;;;12.40;98.00;;;;;;5074348;28;20594;-77
2022/10/18 00:43:55;;;;;;;167.48;28.95;;;12.40;98.10;;;;;;5074360;28;20051;-78
2022/10/18 00:46:22;;;;;;;160.55;27.42;;;12.40;98.00;;;;;;5074454;28;20041;-78
2022/10/18 00:48:48;;;;;;;185.05;30.35;;;12.40;98.10;;;;;;5074549;28;20051;-77
2022/10/18 00:51:17;;;;;;;248.32;32.03;;;12.40;98.10;;;;;;5073872;28;20493;-77
2022/10/18 00:53:43;;;;;;;331.25;43.65;;;12.30;98.10;;;;;;5074067;28;20052;-75
2022/10/18 00:56:08;;;;;;;171.93;28.42;;;12.40;98.10;;;;;;5074501;28;20400;-78
2022/10/18 00:58:37;;;;;;;186.07;28.95;;;12.30;98.10;;;;;;5057404;28;20032;-76
2022/10/18 01:01:03;;;;;;;227.73;33.65;;;12.30;98.10;;;;;;5057703;28;20041;-75
2022/10/18 01:03:29;;;;;;;149.50;23.23;;;12.30;98.10;;;;;;5073908;28;20047;-77
2022/10/18 01:05:55;;;;;;;315.45;43.22;;;12.40;98.10;;;;;;5057671;28;20055;-76
2022/10/18 01:08:45;;;;;;;285.30;37.15;;;12.30;98.10;;;;;;5057616;28;20481;-76
2022/10/18 01:11:52;;;;;;;193.82;31.48;;;12.40;98.10;;;;;;5073313;28;20040;-76
2022/10/18 01:15:00;;;;;;;203.70;30.42;;;12.30;98.10;;;;;;5073802;28;20040;-76
2022/10/18 01:17:30;;;;;;;199.40;28.70;;;12.30;98.10;;;;;;5074039;28;20400;-79
2022/10/18 01:20:08;;;;;;;174.65;32.20;;;12.20;98.20;;;;;;5073709;28;20032;-77
2022/10/18 01:22:40;;;;;;;219.55;32.10;;;12.20;98.20;;;;;;5073744;28;20040;-77
2022/10/18 01:25:18;;;;;;;387.13;44.88;;;12.20;98.20;;;;;;5073952;28;20435;-78
2022/10/18 01:28:06;;;;;;;120.93;24.13;;;12.20;98.30;;;;;;5057213;28;20439;-79
2022/10/18 01:30:53;;;;;;;219.07;31.75;;;12.20;98.10;;;;;;5073450;28;20040;-76
2022/10/18 01:33:32;;;;;;;131.85;27.63;;;12.20;98.20;;;;;;5073392;28;20044;-77
2022/10/18 01:36:00;;;;;;;211.20;31.02;;;12.20;98.20;;;;;;5056764;28;20047;-80
2022/10/18 01:38:29;;;;;;;171.95;28.45;;;12.20;98.30;;;;;;5073348;28;20125;-77
2022/10/18 01:40:56;;;;;;;148.70;26.08;;;12.20;98.20;;;;;;5073194;28;20416;-77
2022/10/18 01:43:24;;;;;;;56.40;16.88;;;12.20;98.10;;;;;;5073560;28;20397;-76
2022/10/18 01:45:52;;;;;;;103.38;21.85;;;12.20;98.10;;;;;;5073492;28;20052;-75
2022/10/18 01:48:18;;;;;;;173.40;25.30;;;12.20;98.10;;;;;;5056515;28;20047;-78
2022/10/18 01:50:44;;;;;;;111.88;26.88;;;12.20;98.20;;;;;;5072828;28;20061;-76
2022/10/18 01:53:29;;;;;;;80.93;20.52;;;12.10;98.20;;;;;;5056449;28;20397;-77
2022/10/18 01:56:19;;;;;;;100.00;24.42;;;12.10;98.20;;;;;;5073053;28;20036;-75
2022/10/18 01:59:04;;;;;;;171.13;29.85;;;12.10;98.20;;;;;;5073032;28;20133;-76
2022/10/18 02:01:35;;;;;;;122.70;25.08;;;12.10;98.20;;;;;;5073002;28;20115;-77
2022/10/18 02:04:43;;;;;;;66.32;22.02;;;12.00;98.20;;;;;;5056427;28;20388;-77
2022/10/18 02:07:22;;;;;;;66.13;22.13;;;12.00;98.30;;;;;;5072785;28;20040;-78
2022/10/18 02:10:11;;;;;;;114.82;23.67;;;12.00;98.30;;;;;;5072707;28;20044;-78
2022/10/18 02:12:41;;;;;;;127.30;26.95;;;12.00;98.20;;;;;;5072754;28;20040;-79
2022/10/18 02:15:10;;;;;;;113.40;24.83;;;11.90;98.30;;;;;;5072684;28;20106;-78
2022/10/18 02:17:38;;;;;;;68.60;21.20;;;11.90;98.30;;;;;;5072591;28;20036;-77
2022/10/18 02:20:07;;;;;;;110.38;22.88;;;11.90;98.30;;;;;;5056080;28;20476;-79
2022/10/18 02:22:35;;;;;;;105.03;22.88;;;11.90;98.30;;;;;;5056036;28;20384;-79
2022/10/18 02:25:05;;;;;;;74.57;20.98;;;11.90;98.20;;;;;;5072222;28;20048;-77
2022/10/18 02:27:31;;;;;;;69.53;22.10;;;11.80;98.30;;;;;;5072714;28;20063;-79
2022/10/18 02:29:57;;;;;;;120.55;24.02;;;11.80;98.20;;;;;;5072524;28;20496;-76
2022/10/18 02:32:31;;;;;;;117.43;27.17;;;11.80;98.20;;;;;;5039340;28;20080;-76
2022/10/18 02:35:04;;;;;;;67.70;20.52;;;11.70;98.20;;;;;;5072188;28;20040;-79
2022/10/18 02:37:35;;;;;;;90.55;23.00;;;11.80;98.20;;;;;;5072173;28;20647;-77
2022/10/18 02:40:03;;;;;;;261.80;32.25;;;11.70;98.20;;;;;;5055557;28;20040;-78
2022/10/18 02:42:45;;;;;;;179.05;24.77;;;11.70;98.20;;;;;;5072155;28;20052;-78
2022/10/18 02:45:12;;;;;;;217.82;29.92;;;11.60;98.20;;;;;;5055546;28;20049;-77
2022/10/18 02:47:38;;;;;;;190.95;23.90;;;11.60;98.20;;;;;;5055618;28;20130;-76
2022/10/18 02:50:04;;;;;;;186.95;25.33;;;11.60;98.10;;;;;;5055139;28;20527;-76
2022/10/18 02:52:30;;;;;;;152.10;22.05;;;11.60;98.10;;;;;;5072351;28;20048;-77
2022/10/18 02:54:56;;;;;;;146.25;21.95;;;11.60;98.10;;;;;;5071962;28;20412;-76
2022/10/18 02:57:21;;;;;;;141.90;21.10;;;11.50;98.10;;;;;;5055322;28;20405;-76
2022/10/18 02:59:47;;;;;;;362.00;32.80;;;11.50;98.10;;;;;;5055456;28;20036;-80
2022/10/18 03:02:13;;;;;;;72.45;12.32;;;11.50;98.10;;;;;;5071920;28;20516;-77
2022/10/18 03:04:38;;;;;;;148.82;19.98;;;11.50;98.10;;;;;;5071731;28;20037;-78
2022/10/18 03:07:04;;;;;;;160.93;18.52;;;11.50;98.10;;;;;;5071827;28;20079;-76
2022/10/18 03:09:30;;;;;;;86.93;14.65;;;11.40;98.00;;;;;;5071921;28;20044;-77
2022/10/18 03:11:56;;;;;;;121.38;19.25;;;11.40;98.00;;;;;;5055351;28;20465;-78
2022/10/18 03:14:22;;;;;;;150.15;21.23;;;11.40;98.00;;;;;;5055199;28;20048;-75
2022/10/18 03:16:48;;;;;;;102.22;15.27;;;11.30;98.00;;;;;;5055025;28;20555;-78
2022/10/18 03:19:13;;;;;;;162.50;21.00;;;11.30;98.00;;;;;;5071840;28;20087;-76
2022/10/18 03:21:39;;;;;;;161.43;19.65;;;11.30;98.00;;;;;;5071940;28;20454;-76
2022/10/18 03:24:05;;;;;;;125.85;17.48;;;11.20;97.90;;;;;;5071850;28;20428;-77
2022/10/18 03:26:31;;;;;;;90.88;15.85;;;11.20;97.90;;;;;;5071620;28;20063;-79
2022/10/18 03:28:56;;;;;;;98.75;16.15;;;11.20;97.90;;;;;;5038521;28;20032;-78
2022/10/18 03:31:22;;;;;;;160.55;17.63;;;11.10;97.80;;;;;;5055124;28;20082;-76
2022/10/18 03:33:48;;;;;;;91.70;14.02;;;11.10;97.80;;;;;;5071422;28;20429;-75
2022/10/18 03:36:14;;;;;;;116.25;12.55;;;11.00;97.80;;;;;;5057640;28;20032;-78
2022/10/18 03:38:40;;;;;;;79.50;12.38;;;11.00;97.80;;;;;;5075692;28;20044;-77
2022/10/18 03:41:05;;;;;;;30.35;9.18;;;10.90;97.70;;;;;;5075802;28;20098;-77
2022/10/18 03:43:31;;;;;;;109.10;14.55;;;10.90;97.80;;;;;;5058870;28;20377;-76
2022/10/18 03:45:57;;;;;;;165.52;16.33;;;10.80;97.90;;;;;;5075826;28;20054;-78
2022/10/18 03:48:23;;;;;;;108.68;14.77;;;10.80;97.80;;;;;;5075435;28;20441;-77
2022/10/18 03:50:49;;;;;;;130.43;17.17;;;10.80;97.90;;;;;;5075354;28;20050;-78
2022/10/18 03:53:14;;;;;;;125.35;12.88;;;10.70;97.80;;;;;;5058712;28;20511;-76
2022/10/18 03:55:40;;;;;;;97.45;10.98;;;10.70;97.90;;;;;;5058644;28;20128;-79
2022/10/18 03:58:06;;;;;;;276.65;22.88;;;10.70;97.90;;;;;;5075264;28;20048;-76
2022/10/18 04:00:32;;;;;;;77.72;10.43;;;10.60;97.90;;;;;;5075223;28;20066;-77
2022/10/18 04:02:57;;;;;;;84.00;13.07;;;10.60;97.90;;;;;;5075110;28;20036;-76
2022/10/18 04:05:25;;;;;;;88.07;13.23;;;10.50;97.90;;;;;;5058993;28;20044;-77
2022/10/18 04:07:51;;;;;;;163.27;19.83;;;10.50;97.80;;;;;;5075220;28;20048;-77
2022/10/18 04:10:17;;;;;;;136.23;15.88;;;10.50;97.80;;;;;;5058411;28;20420;-77
2022/10/18 04:12:43;;;;;;;114.18;16.05;;;10.40;97.80;;;;;;5075276;28;20032;-77
2022/10/18 04:15:09;;;;;;;87.03;14.38;;;10.40;98.00;;;;;;5058197;28;20538;-76
2022/10/18 04:17:35;;;;;;;94.57;15.30;;;10.30;97.90;;;;;;5074798;28;20040;-78
2022/10/18 04:20:00;;;;;;;32.92;9.93;;;10.30;98.00;;;;;;5075030;28;20039;-76
2022/10/18 04:22:26;;;;;;;41.88;10.45;;;10.30;98.00;;;;;;5075115;28;20480;-77
2022/10/18 04:24:52;;;;;;;40.58;11.00;;;10.30;98.00;;;;;;5058080;28;20044;-77
2022/10/18 04:27:18;;;;;;;41.45;11.18;;;10.30;98.00;;;;;;5058457;28;20041;-75
2022/10/18 04:29:43;;;;;;;46.65;12.05;;;10.30;97.90;;;;;;5074613;28;20074;-78
2022/10/18 04:32:09;;;;;;;59.20;12.25;;;10.30;97.90;;;;;;5074602;28;20040;-76
2022/10/18 04:34:35;;;;;;;66.78;13.50;;;10.30;97.90;;;;;;5057873;28;20044;-78
2022/10/18 04:37:01;;;;;;;61.17;14.75;;;10.30;97.90;;;;;;5074805;28;20090;-77
2022/10/18 04:39:26;;;;;;;33.25;10.70;;;10.30;98.00;;;;;;5057799;28;20448;-77
2022/10/18 04:41:52;;;;;;;50.55;11.27;;;10.20;97.90;;;;;;5041280;28;20404;-79
2022/10/18 04:44:18;;;;;;;48.92;13.68;;;10.20;97.90;;;;;;5074388;28;20090;-78
2022/10/18 04:46:43;;;;;;;37.75;12.00;;;10.20;98.00;;;;;;5074054;28;20040;-76
2022/10/18 04:49:09;;;;;;;17.63;7.72;;;10.20;98.00;;;;;;5057612;28;20040;-78
2022/10/18 04:51:35;;;;;;;35.25;10.77;;;10.20;97.90;;;;;;5057569;28;20064;-79
2022/10/18 04:54:00;;;;;;;24.55;9.43;;;10.20;98.00;;;;;;5057523;28;20052;-77
2022/10/18 04:56:26;;;;;;;20.75;9.05;;;10.20;97.90;;;;;;5040965;28;20043;-76
2022/10/18 04:58:52;;;;;;;32.95;8.63;;;10.30;97.90;;;;;;5057599;28;20381;-77
2022/10/18 05:01:18;;;;;;;97.40;13.55;;;10.20;97.80;;;;;;5040686;28;20060;-78
2022/10/18 05:03:43;;;;;;;133.25;15.25;;;10.20;97.90;;;;;;5057386;28;20127;-75
2022/10/18 05:06:09;;;;;;;63.63;11.00;;;10.10;97.80;;;;;;5057418;28;20117;-78
2022/10/18 05:08:35;;;;;;;55.15;10.93;;;10.10;97.80;;;;;;5073950;28;20037;-77
2022/10/18 05:11:02;;;;;;;56.15;10.70;;;10.10;97.80;;;;;;5073868;28;20043;-77
2022/10/18 05:13:29;;;;;;;57.95;12.82;;;10.10;97.80;;;;;;5057444;28;20106;-76
2022/10/18 05:15:54;;;;;;;30.98;9.70;;;10.00;97.70;;;;;;5073300;28;20435;-76
2022/10/18 05:18:20;;;;;;;47.65;12.68;;;10.00;97.90;;;;;;5073863;28;20041;-76
2022/10/18 05:20:46;;;;;;;18.73;7.63;;;10.00;97.90;;;;;;5057068;28;20041;-79
2022/10/18 05:23:12;;;;;;;45.58;10.70;;;10.00;97.90;;;;;;5073656;28;20198;-77
2022/10/18 05:25:41;;;;;;;28.45;7.50;;;10.00;97.90;;;;;;5073639;28;20045;-76
2022/10/18 05:28:07;;;;;;;98.10;10.93;;;10.00;97.90;;;;;;5073846;28;20029;-78
2022/10/18 05:30:39;;;;;;;105.85;12.00;;;10.00;97.80;;;;;;5056961;28;20040;-79
2022/10/18 05:33:05;;;;;;;70.63;8.77;;;10.00;97.90;;;;;;5073779;28;20037;-77
2022/10/18 05:35:31;;;;;;;63.15;7.90;;;9.90;97.80;;;;;;5073385;28;20459;-77
2022/10/18 05:37:57;;;;;;;61.63;8.80;;;9.90;97.80;;;;;;5073422;28;20048;-77
2022/10/18 05:40:23;;;;;;;24.40;6.15;;;9.80;97.80;;;;;;5056921;28;20040;-77
2022/10/18 05:42:51;;;;;;;62.85;12.23;;;9.80;97.90;;;;;;5073325;28;20075;-77
2022/10/18 05:45:17;;;;;;;55.88;8.93;;;9.80;97.80;;;;;;5073257;28;20055;-75
2022/10/18 05:47:42;;;;;;;31.60;9.70;;;9.70;97.80;;;;;;5073203;28;20404;-76
2022/10/18 05:50:08;;;;;;;35.95;14.57;;;9.70;97.70;;;;;;5072942;28;20126;-78
2022/10/18 05:52:34;;;;;;;40.85;14.75;;;9.60;97.70;;;;;;5056625;28;20044;-80
2022/10/18 05:55:00;;;;;;;15.55;9.13;;;9.70;97.80;;;;;;5072998;28;20040;-76
2022/10/18 05:57:26;;;;;;;19.25;8.70;;;9.60;97.80;;;;;;5072930;28;20041;-77
2022/10/18 05:59:51;;;;;;;80.15;13.77;;;9.60;97.80;;;;;;5055873;28;20645;-77
2022/10/18 06:02:17;;;;;;;47.88;9.85;;;9.60;97.80;;;;;;5072922;28;20040;-77
2022/10/18 06:04:43;;;;;;;54.25;8.57;;;9.60;97.80;;;;;;5056472;28;20087;-77
2022/10/18 06:07:11;;;;;;;45.95;8.65;;;9.60;97.70;;;;;;5072791;28;20127;-78
2022/10/18 06:09:37;;;;;;;69.43;10.50;;;9.60;97.70;;;;;;5072638;28;20040;-78
2022/10/18 06:12:04;;;;;;;62.25;8.90;;;9.50;97.60;;;;;;5055660;28;20056;-75
2022/10/18 06:14:30;;;;;;;71.22;8.93;;;9.50;97.70;;;;;;5072279;28;20106;-76
2022/10/18 06:16:55;;;;;;;50.30;6.57;;;9.40;97.60;;;;;;5072324;28;20036;-75
2022/10/18 06:19:22;;;;;;;32.05;6.28;;;9.30;97.60;;;;;;5072748;28;20050;-75
2022/10/18 06:21:48;;;;;;;122.22;10.20;;;9.30;97.70;;;;;;5072566;28;20485;-78
2022/10/18 06:24:14;;;;;;;125.40;11.93;;;9.30;97.60;;;;;;5072544;28;20040;-77
2022/10/18 06:26:39;;;;;;;62.35;8.25;;;9.30;97.70;;;;;;5055901;28;20047;-75
2022/10/18 06:29:05;;;;;;;43.97;6.78;;;9.30;97.70;;;;;;5072628;28;20036;-78
2022/10/18 06:31:31;;;;;;;49.50;7.65;;;9.30;97.70;;;;;;5039360;28;20489;-77
2022/10/18 06:33:57;;;;;;;27.10;7.00;;;9.20;97.60;;;;;;5052268;28;20041;-78
2022/10/18 06:36:23;;;;;;;14.63;6.38;;;9.30;97.70;;;;;;5052645;28;20045;-76
2022/10/18 06:38:49;;;;;;;12.48;6.05;;;9.20;97.70;;;;;;5035979;28;20124;-75
2022/10/18 06:41:16;;;;;;;12.30;6.40;;;9.30;97.70;;;;;;5052406;28;20072;-75
2022/10/18 06:43:43;;;;;;;11.90;6.22;;;9.30;97.70;;;;;;5035542;28;20094;-80
2022/10/18 06:46:09;;;;;;;11.43;5.65;;;9.30;97.70;;;;;;5053132;28;20063;-77
2022/10/18 06:48:37;;;;;;;10.20;5.95;;;9.30;97.70;;;;;;5032993;28;20048;-76
2022/10/18 06:51:06;;;;;;;13.32;6.07;;;9.30;97.70;;;;;;5050836;28;20091;-77
2022/10/18 06:53:36;;;;;;;9.38;5.22;;;9.30;97.70;;;;;;5051291;28;20056;-77
2022/10/18 06:56:05;;;;;;;10.52;5.63;;;9.30;97.50;;;;;;5053556;28;20044;-76
2022/10/18 06:58:32;;;;;;;11.13;5.47;;;9.30;97.60;;;;;;5056116;28;20052;-74
2022/10/18 07:00:58;;;;;;;8.50;5.40;;;9.20;97.60;;;;;;5063043;28;20036;-76
2022/10/18 07:03:25;;;;;;;11.70;5.25;;;9.30;97.60;;;;;;5057968;28;20488;-78
2022/10/18 07:05:50;;;;;;;9.63;5.63;;;9.30;97.60;;;;;;5053948;28;20079;-76
2022/10/18 07:08:16;;;;;;;17.70;6.35;;;9.30;97.50;;;;;;5052661;28;20087;-77
2022/10/18 07:10:49;;;;;;;10.02;5.65;;;9.30;97.60;;;;;;5054080;28;20476;-77
2022/10/18 07:13:15;;;;;;;12.25;6.55;;;9.30;97.60;;;;;;5052527;28;20037;-78
2022/10/18 07:15:41;;;;;;;17.33;6.70;;;9.30;97.60;;;;;;5036906;28;20098;-77
2022/10/18 07:18:06;;;;;;;16.38;6.93;;;9.40;97.60;;;;;;5037425;28;20045;-74
2022/10/18 07:20:32;;;;;;;11.45;5.88;;;9.40;97.60;;;;;;5038193;28;20045;-77
2022/10/18 07:22:58;;;;;;;14.90;5.50;;;9.50;97.70;;;;;;5020402;28;20128;-78
2022/10/18 07:25:24;;;;;;;14.70;6.07;;;9.60;97.70;;;;;;5055830;28;20120;-78
2022/10/18 07:27:49;;;;;;;11.27;5.75;;;9.70;97.70;;;;;;5038455;28;20053;-76
2022/10/18 07:30:15;;;;;;;17.00;5.80;;;9.80;97.60;;;;;;5033693;28;20969;-79
2022/10/18 07:32:41;;;;;;;19.67;5.90;;;9.90;97.70;;;;;;5038395;28;20044;-79
2022/10/18 07:35:07;;;;;;;16.30;5.18;;;9.90;97.80;;;;;;5034336;28;20303;-77
2022/10/18 07:37:32;;;;;;;18.40;7.03;;;10.00;97.60;;;;;;5034776;28;20102;-81
2022/10/18 07:39:58;;;;;;;11.93;5.43;;;10.10;97.60;;;;;;5055624;28;20438;-81
2022/10/18 07:42:24;;;;;;;6.97;5.25;;;10.10;97.60;;;;;;5033511;28;20063;-79
2022/10/18 07:44:50;;;;;;;14.35;5.13;;;10.10;97.70;;;;;;5052439;28;20052;-75
2022/10/18 07:47:15;;;;;;;10.10;4.78;;;10.20;97.60;;;;;;5035073;28;20048;-77
2022/10/18 07:49:41;;;;;;;11.43;5.53;;;10.30;97.60;;;;;;5056440;28;20052;-77
2022/10/18 07:52:07;;;;;;;14.93;6.15;;;10.30;97.60;;;;;;5052973;28;20087;-78
2022/10/18 07:54:32;;;;;;;12.70;5.15;;;10.40;97.60;;;;;;5054873;28;20491;-78
2022/10/18 07:56:58;;;;;;;11.43;5.72;;;10.50;97.60;;;;;;5034851;28;20037;-79
2022/10/18 07:59:24;;;;;;;10.10;5.35;;;10.50;97.80;;;;;;5056714;28;20174;-79
2022/10/18 08:01:49;;;;;;;9.75;5.82;;;10.70;97.70;;;;;;5055908;28;20044;-75
2022/10/18 08:04:15;;;;;;;13.35;5.30;;;10.80;97.50;;;;;;5037660;28;20397;-77
2022/10/18 08:06:41;;;;;;;12.60;5.55;;;10.90;97.40;;;;;;5037944;28;20075;-78
2022/10/18 08:09:07;;;;;;;12.13;4.68;;;11.00;97.30;;;;;;5035249;28;20182;-78
2022/10/18 08:11:32;;;;;;;14.02;4.43;;;11.10;97.60;;;;;;5038228;28;20251;-75
2022/10/18 08:13:58;;;;;;;11.82;5.05;;;11.20;97.30;;;;;;5055618;28;20053;-78
2022/10/18 08:16:29;;;;;;;9.40;4.57;;;11.30;97.30;;;;;;5055370;28;20040;-78
2022/10/18 08:18:57;;;;;;;15.02;4.57;;;11.50;97.10;;;;;;5051170;28;20051;-78
2022/10/18 08:21:22;;;;;;;12.48;3.72;;;11.50;97.10;;;;;;5051940;28;20048;-77
2022/10/18 08:23:48;;;;;;;15.18;3.72;;;11.70;97.10;;;;;;5055787;28;20408;-78
2022/10/18 08:26:20;;;;;;;11.00;3.65;;;11.80;96.90;;;;;;5055510;28;20062;-76
2022/10/18 08:28:47;;;;;;;10.75;4.18;;;11.90;96.80;;;;;;5054369;28;20037;-78
2022/10/18 08:31:18;;;;;;;10.25;3.20;;;12.00;96.90;;;;;;5059649;28;20060;-77
2022/10/18 08:33:46;;;;;;;13.23;3.33;;;12.10;96.80;;;;;;5058818;28;20051;-77
2022/10/18 08:36:14;;;;;;;12.32;3.03;;;12.20;96.70;;;;;;5040625;28;20041;-80
2022/10/18 08:38:41;;;;;;;17.10;4.30;;;12.30;96.70;;;;;;5057164;28;20118;-76
2022/10/18 08:41:25;;;;;;;13.48;3.38;;;12.40;96.60;;;;;;5059082;28;20056;-75
2022/10/18 08:44:19;;;;;;;10.38;3.45;;;12.50;96.70;;;;;;5055189;28;20052;-78
2022/10/18 08:47:09;;;;;;;16.13;3.57;;;12.70;96.30;;;;;;5028192;28;20374;-77
2022/10/18 08:49:43;;;;;;;11.82;3.70;;;12.90;96.20;;;;;;5057858;28;20385;-77
2022/10/18 08:52:45;;;;;;;16.73;2.92;;;13.00;96.10;;;;;;5059319;28;20049;-78
2022/10/18 08:55:37;;;;;;;10.88;2.40;;;13.10;95.90;;;;;;5055077;28;20052;-76
2022/10/18 08:58:18;;;;;;;11.95;3.20;;;13.20;95.80;;;;;;5042061;28;20041;-78
2022/10/18 09:01:05;;;;;;;14.20;2.90;;;13.40;95.60;;;;;;5060386;28;20044;-79
2022/10/18 09:03:48;;;;;;;10.57;2.45;;;13.50;95.30;;;;;;5052204;28;20060;-78
2022/10/18 09:06:17;;;;;;;10.87;3.47;;;13.60;94.90;;;;;;5055958;28;20040;-76
2022/10/18 09:08:55;;;;;;;13.13;2.85;;;13.70;94.70;;;;;;5055933;28;20529;-78
2022/10/18 09:11:39;;;;;;;14.93;3.58;;;13.80;94.50;;;;;;5043653;28;20072;-78
2022/10/18 09:14:38;;;;;;;11.47;2.40;;;14.00;93.70;;;;;;5039473;28;20512;-76
2022/10/18 09:17:25;;;;;;;12.38;3.00;;;14.00;93.60;;;;;;5055394;28;20360;-75
2022/10/18 09:20:06;;;;;;;9.07;2.08;;;14.10;93.50;;;;;;5040857;28;20052;-76
2022/10/18 09:23:00;;;;;;;10.13;2.22;;;14.20;93.10;;;;;;5039477;28;20049;-76
2022/10/18 09:25:54;;;;;;;11.55;2.88;;;14.20;92.20;;;;;;5011352;28;20044;-77
2022/10/18 09:28:41;;;;;;;12.80;2.92;;;14.40;92.20;;;;;;5037863;28;20054;-77
2022/10/18 09:31:39;;;;;;;9.52;2.20;;;14.50;91.70;;;;;;5053654;28;20049;-76
2022/10/18 09:34:17;;;;;;;13.75;2.38;;;14.60;91.10;;;;;;5052917;28;20531;-74
2022/10/18 09:36:44;;;;;;;10.52;2.58;;;14.70;91.00;;;;;;5053668;28;20094;-75
2022/10/18 09:39:21;;;;;;;10.20;3.05;;;14.80;90.20;;;;;;5052366;28;20040;-76
2022/10/18 09:41:52;;;;;;;14.48;2.83;;;14.90;90.00;;;;;;5037965;28;20037;-76
2022/10/18 09:44:26;;;;;;;14.98;2.72;;;15.00;89.90;;;;;;5056868;28;20051;-78
2022/10/18 09:47:20;;;;;;;10.43;2.23;;;15.00;89.30;;;;;;5036721;28;20127;-79
2022/10/18 09:50:00;;;;;;;9.57;2.65;;;15.10;88.60;;;;;;5048024;28;20629;-77
2022/10/18 09:52:41;;;;;;;11.30;1.92;;;15.10;87.40;;;;;;5059100;28;20550;-75
2022/10/18 09:55:29;;;;;;;11.32;2.58;;;15.20;87.20;;;;;;5040327;28;20048;-76
2022/10/18 09:57:59;;;;;;;13.02;2.28;;;15.20;86.40;;;;;;5053664;28;20162;-78
2022/10/18 10:00:30;;;;;;;13.02;2.58;;;15.30;86.60;;;;;;5038933;28;20459;-76
2022/10/18 10:02:57;;;;;;;11.35;2.40;;;15.40;86.70;;;;;;5054471;28;20485;-77
2022/10/18 10:05:23;;;;;;;11.82;1.95;;;15.50;86.40;;;;;;5034337;28;20082;-78
2022/10/18 10:07:55;;;;;;;11.57;2.10;;;15.60;85.70;;;;;;5021929;28;20095;-79
2022/10/18 10:10:24;;;;;;;10.73;1.88;;;15.80;85.10;;;;;;5057294;28;20218;-78
2022/10/18 10:13:04;;;;;;;11.15;2.50;;;15.80;84.80;;;;;;5054020;28;20076;-83
2022/10/18 10:15:32;;;;;;;9.90;1.80;;;16.00;83.90;;;;;;5035612;28;20070;-77
2022/10/18 10:18:03;;;;;;;9.48;1.73;;;16.00;81.80;;;;;;5052982;28;20436;-80
2022/10/18 10:20:32;;;;;;;13.77;2.47;;;15.90;81.40;;;;;;5056677;28;20048;-78
2022/10/18 10:23:06;;;;;;;11.30;3.47;;;15.90;81.40;;;;;;5052769;28;20062;-81
2022/10/18 10:25:36;;;;;;;10.55;2.80;;;15.90;81.00;;;;;;5058041;28;20055;-79
2022/10/18 10:28:06;;;;;;;10.77;2.50;;;15.80;81.40;;;;;;5038109;28;20049;-78
2022/10/18 10:30:37;;;;;;;14.75;2.72;;;15.70;81.80;;;;;;5057440;28;20048;-79
2022/10/18 10:33:04;;;;;;;12.60;2.17;;;15.70;81.90;;;;;;5056638;28;20071;-77
2022/10/18 10:35:37;;;;;;;7.00;1.60;;;15.60;82.00;;;;;;5055529;28;20048;-79
2022/10/18 10:38:03;;;;;;;12.38;2.63;;;15.70;81.90;;;;;;5040886;28;20049;-79
2022/10/18 10:40:41;;;;;;;8.68;2.65;;;15.80;82.00;;;;;;5056750;28;20132;-78
2022/10/18 10:43:17;;;;;;;11.82;2.13;;;15.90;81.30;;;;;;5041829;28;20540;-78
2022/10/18 10:46:11;;;;;;;9.57;1.95;;;16.00;81.20;;;;;;5053466;28;20044;-81
2022/10/18 10:48:53;;;;;;;10.50;2.30;;;16.20;80.60;;;;;;5048003;28;20051;-82
2022/10/18 10:51:37;;;;;;;10.40;2.30;;;16.40;80.70;;;;;;5054412;28;20061;-80
2022/10/18 10:54:11;;;;;;;7.65;2.15;;;16.50;79.30;;;;;;5057746;28;20049;-80
2022/10/18 10:57:03;;;;;;;11.20;2.90;;;16.30;79.30;;;;;;5052298;28;20044;-77
2022/10/18 11:00:01;;;;;;;11.50;1.83;;;16.30;79.30;;;;;;5057108;28;20055;-79
2022/10/18 11:02:35;;;;;;;10.45;2.45;;;16.20;79.40;;;;;;5029685;28;20572;-79
2022/10/18 11:05:25;;;;;;;10.25;2.00;;;16.00;79.90;;;;;;5037787;28;20149;-79
2022/10/18 11:07:55;;;;;;;11.25;2.38;;;15.90;80.10;;;;;;5051762;28;20440;-80
2022/10/18 11:10:24;;;;;;;9.75;2.25;;;15.90;80.40;;;;;;5055616;28;20047;-78
2022/10/18 11:13:01;;;;;;;8.35;2.05;;;15.90;80.30;;;;;;5056287;28;20124;-77
2022/10/18 11:15:37;;;;;;;11.40;1.65;;;16.10;79.40;;;;;;5054944;28;20587;-78
2022/10/18 11:18:16;;;;;;;9.57;2.25;;;16.20;78.30;;;;;;5053823;28;20499;-81
2022/10/18 11:21:11;;;;;;;8.63;1.80;;;16.30;78.80;;;;;;5050344;28;20614;-82
2022/10/18 11:23:40;;;;;;;12.88;3.10;;;16.50;77.50;;;;;;5052884;28;20116;-80
2022/10/18 11:26:11;;;;;;;8.85;2.53;;;16.60;77.20;;;;;;5048613;28;20051;-78
2022/10/18 11:29:16;;;;;;;8.43;1.88;;;16.60;76.20;;;;;;5058239;28;20048;-76
2022/10/18 11:31:50;;;;;;;7.33;2.37;;;16.40;76.70;;;;;;5036638;28;20055;-81
2022/10/18 11:34:53;;;;;;;8.23;1.98;;;16.30;77.00;;;;;;5053675;28;20833;-80
2022/10/18 11:37:41;;;;;;;6.68;2.50;;;16.40;75.90;;;;;;5055729;28;20504;-82
2022/10/18 11:40:25;;;;;;;7.38;1.88;;;16.70;76.50;;;;;;5057424;28;20471;-82
2022/10/18 11:43:19;;;;;;;8.43;1.93;;;16.70;75.00;;;;;;5053690;28;20041;-78
2022/10/18 11:45:47;;;;;;;9.00;2.13;;;16.70;75.40;;;;;;5055744;28;20786;-79
2022/10/18 11:48:34;;;;;;;8.55;1.65;;;16.70;75.20;;;;;;5056657;28;20076;-78
2022/10/18 11:51:25;;;;;;;13.13;2.20;;;16.70;75.40;;;;;;5055655;28;20068;-78
2022/10/18 11:54:28;;;;;;;6.32;1.98;;;16.50;74.10;;;;;;5038351;28;20515;-79
2022/10/18 11:57:12;;;;;;;18.35;4.07;;;16.50;74.60;;;;;;5057313;28;20521;-80
2022/10/18 11:59:52;;;;;;;10.30;2.67;;;16.60;74.80;;;;;;5045156;28;20049;-79
2022/10/18 12:03:03;;;;;;;9.55;2.60;;;16.80;75.10;;;;;;5042399;28;20040;-81
2022/10/18 12:05:30;;;;;;;11.30;2.17;;;16.90;74.20;;;;;;5044601;28;20053;-76
2022/10/18 12:08:10;;;;;;;6.43;1.90;;;16.90;73.90;;;;;;5060814;28;20051;-75
2022/10/18 12:10:38;;;;;;;9.57;2.35;;;17.00;73.40;;;;;;5059183;28;20110;-76
2022/10/18 12:13:06;;;;;;;10.38;2.58;;;17.10;73.00;;;;;;5060009;28;20492;-75
2022/10/18 12:15:36;;;;;;;7.65;2.00;;;17.00;73.00;;;;;;5057138;28;20063;-76
2022/10/18 12:18:19;;;;;;;13.23;3.55;;;16.90;73.00;;;;;;5059705;28;20148;-75
2022/10/18 12:20:48;;;;;;;17.92;3.08;;;16.80;73.60;;;;;;5044265;28;20048;-77
2022/10/18 12:23:39;;;;;;;8.35;2.83;;;16.90;74.00;;;;;;5059886;28;20044;-76
2022/10/18 12:26:08;;;;;;;7.00;1.52;;;17.00;73.20;;;;;;5057477;28;20040;-75
2022/10/18 12:28:46;;;;;;;9.77;2.78;;;16.90;72.90;;;;;;5056930;28;20479;-75
2022/10/18 12:31:15;;;;;;;15.27;2.72;;;16.90;72.60;;;;;;5043693;28;20033;-75
2022/10/18 12:33:46;;;;;;;8.68;2.22;;;16.90;72.30;;;;;;5058235;28;20045;-76
2022/10/18 12:36:46;;;;;;;13.80;2.25;;;16.90;72.40;;;;;;5041008;28;20043;-76
2022/10/18 12:39:25;;;;;;;11.70;2.38;;;17.00;72.20;;;;;;5055682;28;20049;-75
2022/10/18 12:41:55;;;;;;;9.45;2.08;;;17.00;72.00;;;;;;5054112;28;20047;-75
2022/10/18 12:44:32;;;;;;;7.72;2.00;;;17.10;71.90;;;;;;5041986;28;20568;-76
2022/10/18 12:47:01;;;;;;;11.27;1.75;;;17.20;70.30;;;;;;5041610;28;20518;-75
2022/10/18 12:49:38;;;;;;;10.40;2.15;;;17.30;71.10;;;;;;5058243;28;20048;-76
2022/10/18 12:52:24;;;;;;;7.55;1.80;;;17.50;71.50;;;;;;5053118;28;20061;-75
2022/10/18 12:55:19;;;;;;;13.73;2.10;;;17.70;70.90;;;;;;5038482;28;20516;-79
2022/10/18 12:57:50;;;;;;;8.13;1.88;;;17.70;70.80;;;;;;5051449;28;20060;-78